createdAt,value
2023-04-19T00:01:23.484Z,7.94
2023-04-19T00:03:51.360Z,7.91
2023-04-19T00:06:19.224Z,7.84
2023-04-19T00:08:46.742Z,7.74
2023-04-19T00:11:14.298Z,7.79
2023-04-19T00:13:41.842Z,7.76
2023-04-19T00:16:09.429Z,7.82
2023-04-19T00:18:38.888Z,7.82
2023-04-19T00:21:06.495Z,7.76
2023-04-19T00:23:34.022Z,7.86
2023-04-19T00:26:04.791Z,7.75
2023-04-19T00:28:33.575Z,7.68
2023-04-19T00:31:01.035Z,7.68
2023-04-19T00:33:28.679Z,7.63
2023-04-19T00:35:58.073Z,7.75
2023-04-19T00:38:25.819Z,7.74
2023-04-19T00:40:53.369Z,7.72
2023-04-19T00:43:21.323Z,7.68
2023-04-19T00:45:50.008Z,7.55
2023-04-19T00:48:19.502Z,7.60
2023-04-19T00:50:47.284Z,7.63
2023-04-19T00:53:15.956Z,7.65
2023-04-19T00:55:43.477Z,7.62
2023-04-19T00:58:11.404Z,7.61
2023-04-19T01:00:38.903Z,7.57
2023-04-19T01:03:08.976Z,7.59
2023-04-19T01:05:36.664Z,7.59
2023-04-19T01:08:04.325Z,7.55
2023-04-19T01:10:31.885Z,7.57
2023-04-19T01:12:59.584Z,7.55
2023-04-19T01:15:27.133Z,7.48
2023-04-19T01:17:56.217Z,7.52
2023-04-19T01:20:24.022Z,7.48
2023-04-19T01:22:51.442Z,7.47
2023-04-19T01:25:18.962Z,7.45
2023-04-19T01:27:46.443Z,7.40
2023-04-19T01:30:14.115Z,7.39
2023-04-19T01:32:41.693Z,7.40
2023-04-19T01:35:11.532Z,7.37
2023-04-19T01:37:39.123Z,7.38
2023-04-19T01:40:07.279Z,7.38
2023-04-19T01:42:34.785Z,7.31
2023-04-19T01:45:02.253Z,7.18
2023-04-19T01:47:30.038Z,7.16
2023-04-19T01:49:57.448Z,7.24
2023-04-19T01:52:25.049Z,7.12
2023-04-19T01:54:52.529Z,7.10
2023-04-19T01:57:20.442Z,7.02
2023-04-19T01:59:48.305Z,7.02
2023-04-19T02:02:15.956Z,7.04
2023-04-19T02:04:44.300Z,7.05
2023-04-19T02:07:11.822Z,6.96
2023-04-19T02:09:39.592Z,6.89
2023-04-19T02:12:07.273Z,6.82
2023-04-19T02:14:35.572Z,6.79
2023-04-19T02:17:03.444Z,6.62
2023-04-19T02:19:30.898Z,6.64
2023-04-19T02:21:58.414Z,6.66
2023-04-19T02:24:25.958Z,6.68
2023-04-19T02:26:53.563Z,6.69
2023-04-19T02:29:21.186Z,6.69
2023-04-19T02:31:48.881Z,6.62
2023-04-19T02:34:16.673Z,6.66
2023-04-19T02:36:44.405Z,6.63
2023-04-19T02:39:12.384Z,6.65
2023-04-19T02:41:39.927Z,6.63
2023-04-19T02:44:07.820Z,6.47
2023-04-19T02:46:35.532Z,6.34
2023-04-19T02:49:03.588Z,6.31
2023-04-19T02:51:31.339Z,6.23
2023-04-19T02:53:59.157Z,6.34
2023-04-19T02:56:26.779Z,6.27
2023-04-19T02:58:55.231Z,6.29
2023-04-19T03:01:22.915Z,6.24
2023-04-19T03:03:51.129Z,6.30
2023-04-19T03:06:19.211Z,6.39
2023-04-19T03:08:46.774Z,6.39
2023-04-19T03:11:16.701Z,6.36
2023-04-19T03:13:44.467Z,6.37
2023-04-19T03:16:13.675Z,6.31
2023-04-19T03:18:43.072Z,6.30
2023-04-19T03:21:11.500Z,6.28
2023-04-19T03:23:48.110Z,6.31
2023-04-19T03:26:15.991Z,6.33
2023-04-19T03:28:46.959Z,6.34
2023-04-19T03:31:17.555Z,6.29
2023-04-19T03:33:48.478Z,6.29
2023-04-19T03:36:16.855Z,6.29
2023-04-19T03:38:46.487Z,6.23
2023-04-19T03:41:24.387Z,6.20
2023-04-19T03:44:08.708Z,6.15
2023-04-19T03:46:36.349Z,6.05
2023-04-19T03:49:04.352Z,6.08
2023-04-19T03:51:31.974Z,5.98
2023-04-19T03:53:59.644Z,5.93
2023-04-19T03:56:29.071Z,5.91
2023-04-19T03:58:56.597Z,5.89
2023-04-19T04:01:24.482Z,5.94
2023-04-19T04:03:53.727Z,5.99
2023-04-19T04:06:21.381Z,5.88
2023-04-19T04:08:49.160Z,5.84
2023-04-19T04:11:16.818Z,5.63
2023-04-19T04:13:49.061Z,5.57
2023-04-19T04:16:20.772Z,5.65
2023-04-19T04:18:50.285Z,5.66
2023-04-19T04:21:18.395Z,5.65
2023-04-19T04:23:50.072Z,5.58
2023-04-19T04:26:39.595Z,5.45
2023-04-19T04:29:14.775Z,5.52
2023-04-19T04:31:43.252Z,5.45
2023-04-19T04:34:11.554Z,5.42
2023-04-19T04:36:49.749Z,5.46
2023-04-19T04:39:18.456Z,5.49
2023-04-19T04:41:48.072Z,5.43
2023-04-19T04:44:15.642Z,5.27
2023-04-19T04:46:45.258Z,5.15
2023-04-19T04:49:17.076Z,5.16
2023-04-19T04:51:44.530Z,5.10
2023-04-19T04:54:12.251Z,5.14
2023-04-19T04:56:40.131Z,5.25
2023-04-19T04:59:08.437Z,5.14
2023-04-19T05:01:39.742Z,5.06
2023-04-19T05:04:07.602Z,5.05
2023-04-19T05:06:35.211Z,4.94
2023-04-19T05:09:02.733Z,4.68
2023-04-19T05:11:34.174Z,4.74
2023-04-19T05:14:02.649Z,4.73
2023-04-19T05:16:33.448Z,4.62
2023-04-19T05:19:01.415Z,4.55
2023-04-19T05:21:34.581Z,4.58
2023-04-19T05:24:04.455Z,4.70
2023-04-19T05:26:34.017Z,4.71
2023-04-19T05:29:02.982Z,4.70
2023-04-19T05:31:44.941Z,4.90
2023-04-19T05:34:21.382Z,4.85
2023-04-19T05:36:49.884Z,4.64
2023-04-19T05:39:17.454Z,4.73
2023-04-19T05:41:45.123Z,4.69
2023-04-19T05:44:12.880Z,4.65
2023-04-19T05:46:40.884Z,4.41
2023-04-19T05:49:11.405Z,4.44
2023-04-19T05:51:57.394Z,4.39
2023-04-19T05:54:36.215Z,4.37
2023-04-19T05:57:05.956Z,4.44
2023-04-19T05:59:33.542Z,4.40
2023-04-19T06:02:01.695Z,4.42
2023-04-19T06:04:30.199Z,4.35
2023-04-19T06:06:57.809Z,4.18
2023-04-19T06:09:25.418Z,4.22
2023-04-19T06:11:54.858Z,4.20
2023-04-19T06:14:22.840Z,4.18
2023-04-19T06:16:51.180Z,4.26
2023-04-19T06:19:18.987Z,4.32
2023-04-19T06:21:46.522Z,4.45
2023-04-19T06:24:14.186Z,4.49
2023-04-19T06:26:41.982Z,4.48
2023-04-19T06:29:09.486Z,4.45
2023-04-19T06:31:37.026Z,4.45
2023-04-19T06:34:04.597Z,4.50
2023-04-19T06:36:32.593Z,4.64
2023-04-19T06:39:00.049Z,4.90
2023-04-19T06:41:27.568Z,5.22
2023-04-19T06:43:55.058Z,5.43
2023-04-19T06:46:22.527Z,5.52
2023-04-19T06:48:50.071Z,5.23
2023-04-19T06:51:17.754Z,5.40
2023-04-19T06:53:45.440Z,5.27
2023-04-19T06:56:13.654Z,5.54
2023-04-19T06:58:41.057Z,5.20
2023-04-19T07:01:08.516Z,5.89
2023-04-19T07:03:36.809Z,6.58
2023-04-19T07:06:04.645Z,7.18
2023-04-19T07:08:46.387Z,7.09
2023-04-19T07:11:17.240Z,6.88
2023-04-19T07:13:44.780Z,6.92
2023-04-19T07:16:13.447Z,6.96
2023-04-19T07:18:41.065Z,7.71
2023-04-19T07:21:08.595Z,8.26
2023-04-19T07:23:36.341Z,7.97
2023-04-19T07:26:04.016Z,7.90
2023-04-19T07:28:31.779Z,7.53
2023-04-19T07:30:59.680Z,7.26
2023-04-19T07:33:31.272Z,7.87
2023-04-19T07:36:00.127Z,8.44
2023-04-19T07:38:27.588Z,8.92
2023-04-19T07:40:55.091Z,9.13
2023-04-19T07:43:22.568Z,8.54
2023-04-19T07:45:50.077Z,8.78
2023-04-19T07:48:17.548Z,9.09
2023-04-19T07:50:45.060Z,7.97
2023-04-19T07:53:12.624Z,7.16
2023-04-19T07:55:40.158Z,7.23
2023-04-19T07:58:07.697Z,7.34
2023-04-19T08:00:36.882Z,7.64
2023-04-19T08:03:04.848Z,7.67
2023-04-19T08:05:33.032Z,8.30
2023-04-19T08:08:00.560Z,8.52
2023-04-19T08:10:29.235Z,8.85
2023-04-19T08:13:04.276Z,8.41
2023-04-19T08:18:05.213Z,8.46
2023-04-19T08:20:33.290Z,8.52
2023-04-19T08:23:10.481Z,8.19
2023-04-19T08:25:45.969Z,9.28
2023-04-19T08:28:13.497Z,8.38
2023-04-19T08:30:41.344Z,9.39
2023-04-19T08:33:09.183Z,10.20
2023-04-19T08:35:38.965Z,9.82
2023-04-19T08:38:06.574Z,9.20
2023-04-19T08:40:34.384Z,9.36
2023-04-19T08:43:07.062Z,10.10
2023-04-19T08:45:36.140Z,9.52
2023-04-19T08:48:04.984Z,9.30
2023-04-19T08:50:38.946Z,8.79
2023-04-19T08:53:23.829Z,9.24
2023-04-19T08:58:41.380Z,9.58
2023-04-19T09:01:34.063Z,9.62
2023-04-19T09:04:17.237Z,9.79
2023-04-19T09:06:55.078Z,9.56
2023-04-19T09:09:36.632Z,9.23
2023-04-19T09:12:18.390Z,9.90
2023-04-19T09:15:00.360Z,9.35
2023-04-19T09:17:28.973Z,8.52
2023-04-19T09:19:56.465Z,8.75
2023-04-19T09:22:24.274Z,8.32
2023-04-19T09:27:31.785Z,8.40
2023-04-19T09:30:01.606Z,8.56
2023-04-19T09:32:30.102Z,8.85
2023-04-19T09:34:59.882Z,8.72
2023-04-19T09:39:58.142Z,7.96
2023-04-19T09:43:04.358Z,7.53
2023-04-19T09:46:00.449Z,7.59
2023-04-19T09:48:28.079Z,7.79
2023-04-19T09:51:02.392Z,7.71
2023-04-19T09:53:35.518Z,7.50
2023-04-19T09:56:04.289Z,7.62
2023-04-19T09:58:42.560Z,7.95
2023-04-19T10:01:20.327Z,8.17
2023-04-19T10:03:50.488Z,7.89
2023-04-19T10:08:53.286Z,7.64
2023-04-19T10:11:27.689Z,7.38
2023-04-19T10:14:00.093Z,6.93
2023-04-19T10:16:27.829Z,6.92
2023-04-19T10:18:56.280Z,6.81
2023-04-19T10:21:24.267Z,6.94
2023-04-19T10:23:52.184Z,6.97
2023-04-19T10:26:19.760Z,7.09
2023-04-19T10:28:48.312Z,7.14
2023-04-19T10:31:16.219Z,7.11
2023-04-19T10:33:43.890Z,6.87
2023-04-19T10:36:15.062Z,6.78
2023-04-19T10:38:52.055Z,6.86
2023-04-19T10:41:20.019Z,6.71
2023-04-19T10:44:08.268Z,6.71
2023-04-19T10:46:36.398Z,6.87
2023-04-19T10:49:05.568Z,7.50
2023-04-19T10:51:38.820Z,7.65
2023-04-19T10:54:27.114Z,7.54
2023-04-19T10:57:02.396Z,7.25
2023-04-19T10:59:34.460Z,6.99
2023-04-19T11:02:28.318Z,7.03
2023-04-19T11:04:56.010Z,7.52
2023-04-19T11:07:24.957Z,7.55
2023-04-19T11:09:52.971Z,7.56
2023-04-19T11:12:21.725Z,7.63
2023-04-19T11:14:54.886Z,7.65
2023-04-19T11:17:28.008Z,7.99
2023-04-19T11:20:03.768Z,8.15
2023-04-19T11:22:42.318Z,7.91
2023-04-19T11:25:21.360Z,7.86
2023-04-19T11:27:51.167Z,7.56
2023-04-19T11:30:22.730Z,7.49
2023-04-19T11:32:53.162Z,7.63
2023-04-19T11:35:22.805Z,7.73
2023-04-19T11:37:50.807Z,7.50
2023-04-19T11:40:19.893Z,7.47
2023-04-19T11:42:53.348Z,7.80
2023-04-19T11:45:31.659Z,8.05
2023-04-19T11:48:01.293Z,8.07
2023-04-19T11:50:42.774Z,8.13
2023-04-19T11:53:12.928Z,8.00
2023-04-19T11:55:43.509Z,7.82
2023-04-19T11:58:26.929Z,7.94
2023-04-19T12:00:54.527Z,7.87
2023-04-19T12:03:27.098Z,7.84
2023-04-19T12:06:03.866Z,7.75
2023-04-19T12:08:39.143Z,7.54
2023-04-19T12:11:07.173Z,7.50
2023-04-19T12:13:35.120Z,7.40
2023-04-19T12:16:03.504Z,7.43
2023-04-19T12:19:17.839Z,7.34
2023-04-19T12:21:46.595Z,7.33
2023-04-19T12:24:17.492Z,7.51
2023-04-19T12:27:04.335Z,7.47
2023-04-19T12:29:33.926Z,7.46
2023-04-19T12:32:01.795Z,7.69
2023-04-19T12:34:29.604Z,7.56
2023-04-19T12:36:57.242Z,7.49
2023-04-19T12:39:25.067Z,7.23
2023-04-19T12:41:52.844Z,7.13
2023-04-19T12:44:20.474Z,7.13
2023-04-19T12:46:48.079Z,7.06
2023-04-19T12:49:19.277Z,7.35
2023-04-19T12:51:47.845Z,7.23
2023-04-19T12:54:15.982Z,7.26
2023-04-19T12:56:43.559Z,7.51
2023-04-19T12:59:11.698Z,7.38
2023-04-19T13:01:39.658Z,7.31
2023-04-19T13:04:11.766Z,7.35
2023-04-19T13:06:40.347Z,7.46
2023-04-19T13:09:14.219Z,7.49
2023-04-19T13:11:42.399Z,7.19
2023-04-19T13:14:09.884Z,7.45
2023-04-19T13:16:37.343Z,7.43
2023-04-19T13:19:06.308Z,7.63
2023-04-19T13:21:33.821Z,7.82
2023-04-19T13:24:01.351Z,7.49
2023-04-19T13:26:29.080Z,7.58
2023-04-19T13:28:56.926Z,7.73
2023-04-19T13:31:24.455Z,7.79
2023-04-19T13:33:52.238Z,7.71
2023-04-19T13:36:20.004Z,7.75
2023-04-19T13:38:48.219Z,7.78
2023-04-19T13:41:15.751Z,7.73
2023-04-19T13:43:43.260Z,8.12
2023-04-19T13:46:10.832Z,8.37
2023-04-19T13:48:38.348Z,8.71
2023-04-19T13:51:06.713Z,8.89
2023-04-19T13:53:34.210Z,9.21
2023-04-19T13:56:01.709Z,9.12
2023-04-19T13:58:29.230Z,8.34
2023-04-19T14:00:56.934Z,7.86
2023-04-19T14:03:24.678Z,7.81
2023-04-19T14:05:52.290Z,7.85
2023-04-19T14:08:19.729Z,7.76
2023-04-19T14:10:47.300Z,7.48
2023-04-19T14:13:14.787Z,7.30
2023-04-19T14:15:42.340Z,7.39
2023-04-19T14:18:09.880Z,7.43
2023-04-19T14:20:37.498Z,7.42
2023-04-19T14:23:05.013Z,6.92
2023-04-19T14:25:32.570Z,6.41
2023-04-19T14:28:00.041Z,5.76
2023-04-19T14:30:28.494Z,5.42
2023-04-19T14:32:58.274Z,5.12
2023-04-19T14:35:25.936Z,4.94
2023-04-19T14:37:53.457Z,5.00
2023-04-19T14:40:21.177Z,4.75
2023-04-19T14:42:48.801Z,4.65
2023-04-19T14:45:16.264Z,4.46
2023-04-19T14:47:43.806Z,4.40
2023-04-19T14:50:11.344Z,4.37
2023-04-19T14:52:38.849Z,4.60
2023-04-19T14:55:06.809Z,4.55
2023-04-19T14:57:34.292Z,4.64
2023-04-19T15:00:02.310Z,4.70
2023-04-19T15:02:30.171Z,4.78
2023-04-19T15:04:57.998Z,4.87
2023-04-19T15:07:26.339Z,4.79
2023-04-19T15:09:53.854Z,4.64
2023-04-19T15:12:21.555Z,4.61
2023-04-19T15:14:48.956Z,4.40
2023-04-19T15:17:16.900Z,4.34
2023-04-19T15:19:46.991Z,4.32
2023-04-19T15:22:14.512Z,4.23
2023-04-19T15:24:42.328Z,4.24
2023-04-19T15:27:09.740Z,4.28
2023-04-19T15:29:39.506Z,4.28
2023-04-19T15:32:07.387Z,4.29
2023-04-19T15:34:34.861Z,4.11
2023-04-19T15:37:06.031Z,4.05
2023-04-19T15:39:33.677Z,4.10
2023-04-19T15:42:02.212Z,4.08
2023-04-19T15:44:30.075Z,4.17
2023-04-19T15:46:57.706Z,4.09
2023-04-19T15:49:25.356Z,4.30
2023-04-19T15:51:52.736Z,4.29
2023-04-19T15:54:22.140Z,4.34
2023-04-19T15:56:49.683Z,4.31
2023-04-19T15:59:17.400Z,4.41
2023-04-19T16:01:45.104Z,4.34
2023-04-19T16:04:12.959Z,4.37
2023-04-19T16:06:40.546Z,4.40
2023-04-19T16:09:09.312Z,4.45
2023-04-19T16:11:36.786Z,4.51
2023-04-19T16:14:04.259Z,4.54
2023-04-19T16:16:34.501Z,4.64
2023-04-19T16:19:02.189Z,4.51
2023-04-19T16:21:29.955Z,4.60
2023-04-19T16:23:57.581Z,4.63
2023-04-19T16:26:25.028Z,4.62
2023-04-19T16:28:52.973Z,4.63
2023-04-19T16:31:21.188Z,4.54
2023-04-19T16:33:48.731Z,4.56
2023-04-19T16:36:16.349Z,4.59
2023-04-19T16:38:43.888Z,4.60
2023-04-19T16:41:11.926Z,4.62
2023-04-19T16:43:39.395Z,4.69
2023-04-19T16:46:07.584Z,4.62
2023-04-19T16:48:35.100Z,4.67
2023-04-19T16:51:02.499Z,4.81
2023-04-19T16:53:31.389Z,4.91
2023-04-19T16:56:00.390Z,4.96
2023-04-19T16:58:28.028Z,5.04
2023-04-19T17:00:57.067Z,5.01
2023-04-19T17:03:24.733Z,4.98
2023-04-19T17:05:52.358Z,4.88
2023-04-19T17:08:21.611Z,4.71
2023-04-19T17:10:49.087Z,4.69
2023-04-19T17:13:16.640Z,4.70
2023-04-19T17:15:44.276Z,4.64
2023-04-19T17:18:11.789Z,4.52
2023-04-19T17:20:39.313Z,4.57
2023-04-19T17:23:07.145Z,4.43
2023-04-19T17:25:34.719Z,4.27
2023-04-19T17:28:02.315Z,4.20
2023-04-19T17:30:29.826Z,4.23
2023-04-19T17:32:57.395Z,4.12
2023-04-19T17:35:26.255Z,4.17
2023-04-19T17:37:53.785Z,4.18
2023-04-19T17:40:21.582Z,4.23
2023-04-19T17:42:49.048Z,4.21
2023-04-19T17:45:16.695Z,4.14
2023-04-19T17:47:44.463Z,4.20
2023-04-19T17:50:13.446Z,4.29
2023-04-19T17:52:40.993Z,4.26
2023-04-19T17:55:09.067Z,4.18
2023-04-19T17:57:36.561Z,4.28
2023-04-19T18:00:06.701Z,4.20
2023-04-19T18:02:36.796Z,4.25
2023-04-19T18:05:04.749Z,4.30
2023-04-19T18:07:32.218Z,4.41
2023-04-19T18:09:59.796Z,4.51
2023-04-19T18:12:27.662Z,4.47
2023-04-19T18:14:55.201Z,4.37
2023-04-19T18:17:22.714Z,4.39
2023-04-19T18:19:50.228Z,4.43
2023-04-19T18:22:17.739Z,4.45
2023-04-19T18:24:46.990Z,4.51
2023-04-19T18:27:14.374Z,4.50
2023-04-19T18:29:41.847Z,4.26
2023-04-19T18:32:09.479Z,4.17
2023-04-19T18:34:37.044Z,4.16
2023-04-19T18:37:15.266Z,4.07
2023-04-19T18:39:43.337Z,3.98
2023-04-19T18:42:10.872Z,3.93
2023-04-19T18:44:52.767Z,3.95
2023-04-19T18:47:22.187Z,4.08
2023-04-19T18:50:03.780Z,4.02
2023-04-19T18:52:34.820Z,3.89
2023-04-19T18:55:03.231Z,3.91
2023-04-19T18:57:34.710Z,4.02
2023-04-19T19:00:06.260Z,4.04
2023-04-19T19:02:36.172Z,4.18
2023-04-19T19:05:07.511Z,4.14
2023-04-19T19:07:37.527Z,4.10
2023-04-19T19:10:18.412Z,3.87
2023-04-19T19:12:48.418Z,3.80
2023-04-19T19:15:16.070Z,3.70
2023-04-19T19:17:48.833Z,3.72
2023-04-19T19:20:18.796Z,3.70
2023-04-19T19:22:46.480Z,3.59
2023-04-19T19:25:14.057Z,3.50
2023-04-19T19:27:50.156Z,3.36
2023-04-19T19:30:33.528Z,3.28
2023-04-19T19:33:02.928Z,3.25
2023-04-19T19:35:30.414Z,3.19
2023-04-19T19:37:57.860Z,3.22
2023-04-19T19:40:25.424Z,3.06
2023-04-19T19:42:52.960Z,2.99
2023-04-19T19:45:20.858Z,2.93
2023-04-19T19:47:49.937Z,2.94
2023-04-19T19:52:48.375Z,2.99
2023-04-19T19:55:15.818Z,2.86
2023-04-19T20:00:36.779Z,3.06
2023-04-19T20:03:02.330Z,2.87
2023-04-19T20:05:30.113Z,2.79
2023-04-19T20:08:12.684Z,2.83
2023-04-19T20:10:42.488Z,2.85
2023-04-19T20:13:11.942Z,2.83
2023-04-19T20:15:40.153Z,2.79
2023-04-19T20:18:08.444Z,2.76
2023-04-19T20:20:36.615Z,2.70
2023-04-19T20:23:04.223Z,2.73
2023-04-19T20:25:34.717Z,2.74
2023-04-19T20:28:02.383Z,2.71
2023-04-19T20:30:29.773Z,2.76
2023-04-19T20:32:57.724Z,2.89
2023-04-19T20:35:25.350Z,2.97
2023-04-19T20:37:53.230Z,3.07
2023-04-19T20:40:23.076Z,3.18
2023-04-19T20:42:51.548Z,3.26
2023-04-19T20:45:19.231Z,3.34
2023-04-19T20:47:47.311Z,3.41
2023-04-19T20:50:14.701Z,3.51
2023-04-19T20:52:42.190Z,3.54
2023-04-19T20:55:09.895Z,3.61
2023-04-19T20:57:37.377Z,3.63
2023-04-19T21:00:08.514Z,3.66
2023-04-19T21:02:36.740Z,3.66
2023-04-19T21:05:04.570Z,3.69
2023-04-19T21:07:32.049Z,3.73
2023-04-19T21:09:59.538Z,3.71
2023-04-19T21:12:27.013Z,3.69
2023-04-19T21:14:54.486Z,3.67
2023-04-19T21:17:22.078Z,3.66
2023-04-19T21:19:49.480Z,3.65
2023-04-19T21:22:16.929Z,3.64
2023-04-19T21:24:44.348Z,3.63
2023-04-19T21:27:11.828Z,3.65
2023-04-19T21:29:39.186Z,3.73
2023-04-19T21:32:06.779Z,3.72
2023-04-19T21:34:34.452Z,3.73
2023-04-19T21:37:01.940Z,3.74
2023-04-19T21:39:29.337Z,3.72
2023-04-19T21:41:57.579Z,3.76
2023-04-19T21:44:24.947Z,3.74
2023-04-19T21:46:52.575Z,3.72
2023-04-19T21:49:20.263Z,3.73
2023-04-19T21:51:47.737Z,3.71
2023-04-19T21:54:26.685Z,3.71
2023-04-19T21:56:58.514Z,3.72
2023-04-19T21:59:26.461Z,3.76
2023-04-19T22:01:54.193Z,3.76
2023-04-19T22:04:21.817Z,3.74
2023-04-19T22:06:49.602Z,3.72
2023-04-19T22:09:17.182Z,3.67
2023-04-19T22:11:46.042Z,3.71
2023-04-19T22:14:13.542Z,3.70
2023-04-19T22:16:42.279Z,3.70
2023-04-19T22:19:10.847Z,3.67
2023-04-19T22:22:06.429Z,3.56
2023-04-19T22:24:35.886Z,3.57
2023-04-19T22:27:06.777Z,3.55
2023-04-19T22:29:36.222Z,3.56
2023-04-19T22:32:07.697Z,3.63
2023-04-19T22:34:36.606Z,3.61
2023-04-19T22:37:03.969Z,3.65
2023-04-19T22:39:31.429Z,3.67
2023-04-19T22:41:58.817Z,3.59
2023-04-19T22:44:26.311Z,3.62
2023-04-19T22:46:53.777Z,3.52
2023-04-19T22:49:22.600Z,3.46
2023-04-19T22:51:50.016Z,3.46
2023-04-19T22:54:17.552Z,3.47
2023-04-19T22:56:44.978Z,3.40
2023-04-19T22:59:13.637Z,3.34
2023-04-19T23:01:41.622Z,3.41
2023-04-19T23:04:10.856Z,3.38
2023-04-19T23:06:38.895Z,3.31
2023-04-19T23:09:06.443Z,3.39
2023-04-19T23:11:34.911Z,3.47
2023-04-19T23:14:02.833Z,3.47
2023-04-19T23:16:30.424Z,3.47
2023-04-19T23:18:58.290Z,3.52
2023-04-19T23:21:25.903Z,3.47
2023-04-19T23:23:53.415Z,3.44
2023-04-19T23:26:21.687Z,3.43
2023-04-19T23:28:49.157Z,3.44
2023-04-19T23:31:16.735Z,3.38
2023-04-19T23:33:44.291Z,3.36
2023-04-19T23:36:11.751Z,3.30
2023-04-19T23:38:39.293Z,3.26
2023-04-19T23:41:10.189Z,3.30
2023-04-19T23:43:37.782Z,3.29
2023-04-19T23:46:06.774Z,3.32
2023-04-19T23:48:35.141Z,3.30
2023-04-19T23:51:02.617Z,3.34
2023-04-19T23:53:30.217Z,3.41
2023-04-19T23:55:57.648Z,3.48
2023-04-19T23:58:25.136Z,3.48
